Time;durP1;ratioP1;P1;durP2;ratioP2;P2;SDS_P1;SDS_P2;PMS_P1;PMS_P2;Temp;Humidity;BMP_temperature;BMP_pressure;BME280_temperature;BME280_humidity;BME280_pressure;Samples;Min_cycle;Max_cycle;Signal;HPM_P1;HPM_P2
2023/01/28 00:01:50;;;;;;;14.20;7.55;;;;;;;-9.54;71.46;100084.72;4769008;30;20059;-83
2023/01/28 00:04:17;;;;;;;12.85;7.25;;;;;;;-9.55;71.76;100077.81;4769171;30;20047;-84
2023/01/28 00:06:43;;;;;;;16.48;7.95;;;;;;;-9.57;71.49;100083.81;4769305;30;20047;-84
2023/01/28 00:09:09;;;;;;;18.67;7.68;;;;;;;-9.60;71.56;100074.28;4769941;30;20522;-85
2023/01/28 00:11:35;;;;;;;13.80;7.25;;;;;;;-9.64;71.49;100069.06;4784148;30;20131;-84
2023/01/28 00:14:03;;;;;;;18.75;8.55;;;;;;;-9.66;71.34;100076.81;4754130;30;20044;-85
2023/01/28 00:16:29;;;;;;;17.42;8.07;;;;;;;-9.67;71.82;100082.81;4784264;30;20527;-82
2023/01/28 00:18:55;;;;;;;12.77;7.63;;;;;;;-9.65;71.34;100070.78;4756837;30;20101;-84
2023/01/28 00:21:21;;;;;;;14.45;7.75;;;;;;;-9.68;71.47;100081.06;4773382;30;20500;-85
2023/01/28 00:23:53;;;;;;;14.95;8.30;;;;;;;-9.67;71.28;100074.19;4776477;30;20151;-83
2023/01/28 00:26:20;;;;;;;15.98;8.05;;;;;;;-9.66;71.42;100079.41;4776039;30;20058;-82
2023/01/28 00:28:47;;;;;;;12.77;7.30;;;;;;;-9.63;71.33;100084.59;4775427;30;20043;-84
2023/01/28 00:31:18;;;;;;;15.65;8.57;;;;;;;-9.70;70.98;100077.63;4775722;30;20063;-83
2023/01/28 00:33:46;;;;;;;15.05;7.68;;;;;;;-9.72;71.39;100073.25;4774083;30;20052;-82
2023/01/28 00:36:13;;;;;;;16.08;9.10;;;;;;;-9.80;71.38;100063.69;4741407;30;20062;-83
2023/01/28 00:38:39;;;;;;;15.90;9.35;;;;;;;-9.80;70.96;100070.56;4739294;30;20524;-82
2023/01/28 00:41:09;;;;;;;15.88;8.95;;;;;;;-9.80;71.26;100073.16;4739248;30;20052;-82
2023/01/28 00:43:36;;;;;;;15.50;8.45;;;;;;;-9.77;70.92;100070.63;4753814;30;20056;-82
2023/01/28 00:46:03;;;;;;;16.38;9.40;;;;;;;-9.77;71.08;100067.16;4739143;30;20056;-83
2023/01/28 00:48:29;;;;;;;19.23;9.90;;;;;;;-9.80;70.82;100066.25;4739214;30;20059;-83
2023/01/28 00:50:56;;;;;;;17.58;9.63;;;;;;;-9.76;70.52;100074.06;4754065;30;20051;-82
2023/01/28 00:53:22;;;;;;;19.08;9.50;;;;;;;-9.78;70.83;100066.28;4739354;30;20513;-83
2023/01/28 00:55:47;;;;;;;23.77;10.57;;;;;;;-9.74;70.91;100078.44;4754553;30;20531;-83
2023/01/28 00:58:14;;;;;;;14.90;9.35;;;;;;;-9.80;70.64;100061.09;4748822;30;20064;-82
2023/01/28 01:00:40;;;;;;;18.42;9.50;;;;;;;-9.81;70.80;100064.53;4755106;30;20090;-82
2023/01/28 01:03:06;;;;;;;17.00;10.10;;;;;;;-9.80;70.82;100068.84;4755576;30;20147;-82
2023/01/28 01:05:32;;;;;;;14.63;8.63;;;;;;;-9.86;70.48;100073.06;4754985;30;20048;-83
2023/01/28 01:07:59;;;;;;;16.88;9.55;;;;;;;-9.95;70.60;100065.19;4753849;30;20052;-83
2023/01/28 01:10:25;;;;;;;16.52;8.93;;;;;;;-9.98;70.65;100065.16;4740919;30;20115;-83
2023/01/28 01:12:51;;;;;;;13.25;6.75;;;;;;;-10.07;70.70;100059.00;4756319;30;20071;-83
2023/01/28 01:15:19;;;;;;;13.23;7.82;;;;;;;-10.14;70.95;100075.28;4754008;30;20080;-82
2023/01/28 01:17:47;;;;;;;12.48;8.02;;;;;;;-10.15;70.77;100062.34;4739561;30;20055;-83
2023/01/28 01:20:22;;;;;;;17.08;8.40;;;;;;;-10.17;71.03;100064.88;4739309;30;20066;-81
2023/01/28 01:22:50;;;;;;;15.45;8.75;;;;;;;-10.24;70.36;100057.88;4755317;30;20159;-82
2023/01/28 01:25:18;;;;;;;15.25;9.00;;;;;;;-10.31;70.95;100066.41;4755631;30;20086;-84
2023/01/28 01:27:46;;;;;;;20.65;9.43;;;;;;;-10.33;70.92;100068.97;4740056;30;20068;-84
2023/01/28 01:30:13;;;;;;;18.92;10.48;;;;;;;-10.33;70.84;100062.94;4742022;30;20048;-82
2023/01/28 01:32:39;;;;;;;21.35;10.55;;;;;;;-10.37;71.21;100067.19;4756051;30;20048;-82
2023/01/28 01:35:07;;;;;;;22.13;11.73;;;;;;;-10.41;71.09;100069.72;4755219;30;20573;-85
2023/01/28 01:37:33;;;;;;;20.73;11.02;;;;;;;-10.52;71.36;100052.31;4755966;30;20062;-85
2023/01/28 01:40:01;;;;;;;17.17;8.77;;;;;;;-10.52;72.10;100067.81;4753744;30;20056;-83
2023/01/28 01:42:27;;;;;;;16.77;9.50;;;;;;;-10.57;71.84;100066.00;4753908;30;20063;-84
2023/01/28 01:45:06;;;;;;;19.25;10.48;;;;;;;-10.55;72.24;100070.34;4754234;30;20094;-83
2023/01/28 01:47:47;;;;;;;22.75;11.45;;;;;;;-10.55;71.66;100062.59;4753573;30;20509;-82
2023/01/28 01:50:19;;;;;;;21.40;11.32;;;;;;;-10.71;72.14;100050.28;4754008;30;20048;-82
2023/01/28 01:52:48;;;;;;;18.75;10.05;;;;;;;-10.61;72.25;100067.66;4754299;30;20147;-83
2023/01/28 01:55:20;;;;;;;14.90;9.00;;;;;;;-10.62;72.63;100084.00;4758052;30;20048;-83
2023/01/28 01:57:50;;;;;;;18.02;9.23;;;;;;;-10.58;72.33;100083.22;4745511;30;20151;-82
2023/01/28 02:00:17;;;;;;;17.83;8.07;;;;;;;-10.56;72.05;100078.09;4743837;30;20113;-82
2023/01/28 02:02:47;;;;;;;;;;;;;;;-10.56;72.09;100081.53;4741714;30;20133;-82
2023/01/28 02:05:18;;;;;;;13.07;8.33;;;;;;;-10.62;72.38;100077.97;4753180;30;19926;-83
2023/01/28 02:07:47;;;;;;;21.17;8.63;;;;;;;-10.62;72.18;100080.56;4753306;30;20421;-82
2023/01/28 02:10:13;;;;;;;12.73;8.90;;;;;;;-10.64;72.06;100083.13;4738094;30;20101;-83
2023/01/28 02:12:44;;;;;;;16.77;8.48;;;;;;;-10.74;72.24;100068.31;4753613;30;20063;-83
2023/01/28 02:15:15;;;;;;;13.82;8.13;;;;;;;-10.65;72.49;100076.19;4755651;30;20048;-83
2023/01/28 02:17:43;;;;;;;15.63;8.75;;;;;;;-10.56;72.53;100088.41;4753066;30;20064;-84
2023/01/28 02:20:18;;;;;;;14.07;8.00;;;;;;;-10.50;71.83;100079.88;4752587;30;20052;-82
2023/01/28 02:23:16;;;;;;;14.73;8.27;;;;;;;-10.46;71.89;100092.00;4739171;30;20048;-84
2023/01/28 02:25:57;;;;;;;13.02;7.53;;;;;;;-10.44;72.02;100082.59;4740672;30;20060;-83
2023/01/28 02:28:44;;;;;;;17.58;8.70;;;;;;;-10.36;71.87;100086.16;4739607;30;20055;-83
2023/01/28 02:31:17;;;;;;;11.90;7.95;;;;;;;-10.25;71.86;100092.38;4739069;30;20485;-86
2023/01/28 02:34:10;;;;;;;15.07;8.65;;;;;;;-10.12;71.43;100096.81;4738148;30;20055;-85
2023/01/28 02:36:48;;;;;;;16.73;8.80;;;;;;;-10.06;71.30;100088.31;4738378;30;20062;-84
2023/01/28 02:39:29;;;;;;;15.95;8.57;;;;;;;-9.97;71.18;100084.97;4737438;30;20140;-83
2023/01/28 02:42:08;;;;;;;11.23;6.85;;;;;;;-9.89;70.41;100092.03;4736501;30;20048;-81
2023/01/28 02:44:34;;;;;;;13.05;5.85;;;;;;;-9.90;70.07;100084.22;4737088;30;20052;-81
2023/01/28 02:49:57;;;;;;;13.52;6.88;;;;;;;-9.88;70.31;100098.06;4751980;30;20060;-82
2023/01/28 02:55:32;;;;;;;11.27;6.07;;;;;;;-9.83;70.01;100106.75;4751131;30;19929;-81
2023/01/28 02:58:21;;;;;;;9.75;5.28;;;;;;;-9.80;69.88;100101.63;4736783;30;20064;-81
2023/01/28 03:01:17;;;;;;;10.13;5.63;;;;;;;-9.77;69.82;100117.19;4737293;30;20087;-83
2023/01/28 03:03:49;;;;;;;9.45;5.78;;;;;;;-9.83;69.42;100091.22;4752075;30;20525;-82
2023/01/28 03:06:21;;;;;;;16.83;7.07;;;;;;;-9.62;69.60;100106.19;4752039;30;20044;-80
2023/01/28 03:36:50;;;;;;;9.93;5.65;;;;;;;-9.64;69.23;100105.28;4736775;30;20052;-83
2023/01/28 03:39:42;;;;;;;13.90;5.65;;;;;;;-9.61;68.45;100115.66;4752694;30;20098;-83
2023/01/28 03:42:12;;;;;;;11.93;5.50;;;;;;;-9.57;68.51;100105.38;4751880;30;20059;-81
2023/01/28 03:45:02;;;;;;;9.45;5.30;;;;;;;-9.74;68.29;100083.59;4746238;30;20517;-81
2023/01/28 03:47:30;;;;;;;10.98;5.80;;;;;;;-9.61;68.46;100108.78;4752347;30;20048;-83
2023/01/28 03:50:00;;;;;;;10.55;5.28;;;;;;;-9.49;68.51;100105.47;4736562;30;20478;-81
2023/01/28 03:52:31;;;;;;;15.35;6.43;;;;;;;-9.43;68.40;100102.97;4753384;30;20056;-82
2023/01/28 03:55:22;;;;;;;12.93;7.18;;;;;;;-9.37;68.39;100112.53;4752716;30;20067;-83
2023/01/28 03:57:48;;;;;;;15.07;7.00;;;;;;;-9.42;68.12;100093.50;4770742;30;20103;-80
2023/01/28 04:00:17;;;;;;;14.98;6.53;;;;;;;-9.38;68.14;100111.66;4755013;30;20048;-84
2023/01/28 04:02:43;;;;;;;14.80;7.50;;;;;;;-9.41;68.22;100106.44;4754987;30;20052;-81
2023/01/28 04:05:14;;;;;;;;;;;;;;;-9.31;68.22;100107.44;4740014;30;20052;-81
2023/01/28 04:07:50;;;;;;;9.25;5.43;;;;;;;-9.34;67.79;100115.16;4760980;30;20449;-86
2023/01/28 04:10:39;;;;;;;;;;;;;;;-9.41;67.73;100111.63;4769226;30;20413;-85
2023/01/28 04:13:14;;;;;;;14.98;5.53;;;;;;;-9.41;67.90;100114.19;4763122;30;19925;-89
2023/01/28 04:15:45;;;;;;;11.30;6.40;;;;;;;-9.41;68.07;100108.16;4750564;30;20048;-80
2023/01/28 04:18:11;;;;;;;11.63;6.72;;;;;;;-9.40;68.19;100107.31;4740670;30;20142;-80
2023/01/28 04:20:38;;;;;;;13.98;6.28;;;;;;;-9.39;68.08;100111.66;4756375;30;20056;-81
2023/01/28 04:23:06;;;;;;;14.23;5.88;;;;;;;-9.25;68.15;100114.38;4740497;30;20116;-81
2023/01/28 04:25:33;;;;;;;14.75;6.10;;;;;;;-9.32;67.91;100116.91;4741713;30;20433;-86
2023/01/28 04:28:00;;;;;;;12.38;6.93;;;;;;;-9.34;67.80;100112.56;4741045;30;20062;-81
2023/01/28 04:30:35;;;;;;;8.55;5.20;;;;;;;-9.26;67.48;100115.25;4726074;30;20044;-83
2023/01/28 04:33:13;;;;;;;8.95;5.47;;;;;;;-9.44;67.30;100110.69;4754075;30;20080;-81
2023/01/28 04:36:01;;;;;;;10.20;5.43;;;;;;;-9.41;67.58;100118.50;4754680;30;20055;-80
2023/01/28 04:38:44;;;;;;;12.85;6.13;;;;;;;-9.33;67.32;100119.47;4742252;30;20048;-83
2023/01/28 04:41:28;;;;;;;14.20;4.65;;;;;;;-9.33;67.56;100116.88;4773185;30;20055;-80
2023/01/28 04:43:59;;;;;;;9.90;5.70;;;;;;;-9.36;67.37;100115.16;4758948;30;20047;-82
2023/01/28 04:46:44;;;;;;;8.95;5.60;;;;;;;-8.99;71.06;100119.88;4778561;30;20052;-84
2023/01/28 04:49:20;;;;;;;7.43;4.95;;;;;;;-8.93;68.74;100123.41;4772368;30;20470;-83
2023/01/28 04:51:46;;;;;;;11.45;6.05;;;;;;;-9.01;67.35;100121.59;4773554;30;20145;-85
2023/01/28 04:54:34;;;;;;;8.27;5.20;;;;;;;-9.14;66.93;100118.88;4742750;30;20206;-85
2023/01/28 04:57:03;;;;;;;10.15;3.72;;;;;;;-9.27;66.34;100127.31;4739664;30;20052;-86
2023/01/28 04:59:31;;;;;;;6.68;4.72;;;;;;;-9.29;66.50;100126.44;4741877;30;20052;-86
2023/01/28 05:01:57;;;;;;;10.52;5.53;;;;;;;-9.46;66.86;100120.19;4769823;30;20054;-83
2023/01/28 05:04:24;;;;;;;12.65;4.65;;;;;;;-9.32;66.79;100126.41;4774764;30;20043;-87
2023/01/28 05:06:51;;;;;;;14.00;4.80;;;;;;;-9.29;66.65;100129.00;4775805;30;20073;-86
2023/01/28 05:09:21;;;;;;;9.00;5.07;;;;;;;-9.36;66.76;100122.06;4759839;30;20055;-86
2023/01/28 05:11:49;;;;;;;7.78;4.53;;;;;;;-9.32;66.36;100132.47;4761604;30;20048;-86
2023/01/28 05:14:15;;;;;;;11.80;5.18;;;;;;;-9.14;66.79;100134.41;4774884;30;20113;-84
2023/01/28 05:16:50;;;;;;;6.45;3.83;;;;;;;-9.03;66.28;100133.63;4761774;30;20043;-86
2023/01/28 05:19:16;;;;;;;8.10;4.73;;;;;;;-9.17;65.93;100118.81;4773443;30;20047;-81
2023/01/28 05:21:45;;;;;;;10.32;4.10;;;;;;;-9.22;66.36;100122.19;4775688;30;20289;-82
2023/01/28 05:24:22;;;;;;;15.55;3.67;;;;;;;-9.19;66.65;100128.28;4764411;30;20143;-90
2023/01/28 05:26:48;;;;;;;6.85;3.53;;;;;;;-9.20;66.22;100120.50;4780909;30;20477;-90
2023/01/28 05:29:14;;;;;;;6.65;4.38;;;;;;;-9.11;66.25;100139.59;4777225;30;20090;-84
2023/01/28 05:31:40;;;;;;;8.25;4.15;;;;;;;-8.95;66.16;100127.72;4775147;30;20067;-84
2023/01/28 05:34:07;;;;;;;4.72;3.78;;;;;;;-8.91;66.00;100133.78;4777996;30;20047;-84
2023/01/28 05:36:33;;;;;;;8.10;4.45;;;;;;;-8.75;66.18;100140.00;4796997;30;20510;-86
2023/01/28 05:39:06;;;;;;;8.07;4.15;;;;;;;-8.62;65.94;100142.72;4799537;30;20048;-85
2023/01/28 05:41:33;;;;;;;5.63;3.85;;;;;;;-8.54;65.81;100124.66;4797669;30;20059;-85
2023/01/28 05:44:01;;;;;;;6.18;4.10;;;;;;;-8.39;65.54;100140.34;4786745;30;20044;-89
2023/01/28 05:46:55;;;;;;;6.40;3.55;;;;;;;-8.28;65.29;100136.97;4785222;30;20063;-85
2023/01/28 05:49:42;;;;;;;9.25;4.47;;;;;;;-8.37;64.83;100132.59;4780033;30;20083;-86
2023/01/28 05:52:28;;;;;;;9.00;4.78;;;;;;;-8.26;65.06;100138.72;4773281;30;20059;-86
2023/01/28 05:54:55;;;;;;;12.02;4.15;;;;;;;-8.18;65.04;100142.25;4792314;30;20107;-82
2023/01/28 05:57:21;;;;;;;7.00;4.75;;;;;;;-8.19;64.86;100137.06;4750009;30;20566;-86
2023/01/28 05:59:49;;;;;;;7.40;4.07;;;;;;;-8.13;64.73;100140.53;4797118;30;20048;-89
2023/01/28 06:02:15;;;;;;;14.93;4.53;;;;;;;-8.23;64.66;100133.56;4787551;30;20066;-88
2023/01/28 06:04:42;;;;;;;10.30;5.18;;;;;;;-8.26;64.90;100141.31;4772091;30;20055;-87
2023/01/28 06:07:08;;;;;;;11.23;5.22;;;;;;;-7.99;65.07;100148.44;4786556;30;20058;-86
2023/01/28 06:09:36;;;;;;;7.93;4.10;;;;;;;-7.92;64.22;100147.63;4787296;30;20143;-87
2023/01/28 06:12:03;;;;;;;9.07;3.72;;;;;;;-7.85;64.40;100154.63;4773308;30;20039;-86
2023/01/28 06:14:35;;;;;;;7.97;4.47;;;;;;;-7.89;63.91;100158.03;4787694;30;20060;-86
2023/01/28 06:17:30;;;;;;;5.32;3.53;;;;;;;-7.90;64.04;100153.72;4768377;30;20508;-87
2023/01/28 06:20:07;;;;;;;9.40;4.25;;;;;;;-8.01;64.12;100136.31;4780278;30;20066;-83
2023/01/28 06:22:35;;;;;;;9.35;5.10;;;;;;;-8.11;64.54;100136.25;4778215;30;20051;-84
2023/01/28 06:25:02;;;;;;;9.65;5.38;;;;;;;-7.92;64.78;100146.78;4773881;30;20052;-82
2023/01/28 06:27:28;;;;;;;10.75;4.28;;;;;;;-7.71;63.73;100154.72;4756237;30;20103;-85
2023/01/28 06:29:54;;;;;;;8.45;4.47;;;;;;;-7.77;63.38;100156.41;4762819;30;20040;-88
2023/01/28 06:32:20;;;;;;;6.70;3.80;;;;;;;-7.87;63.48;100155.44;4778745;30;20058;-84
2023/01/28 06:34:46;;;;;;;6.65;3.42;;;;;;;-7.88;63.42;100159.78;4772979;30;20056;-82
2023/01/28 06:37:13;;;;;;;7.28;3.55;;;;;;;-7.94;62.68;100156.25;4791376;30;20059;-84
2023/01/28 06:39:39;;;;;;;10.20;4.75;;;;;;;-7.85;63.19;100148.56;4776919;30;20056;-86
2023/01/28 06:42:05;;;;;;;9.25;4.90;;;;;;;-7.49;62.81;100157.44;4762780;30;20054;-84
2023/01/28 06:44:31;;;;;;;10.23;5.53;;;;;;;-7.48;61.93;100154.00;4784484;30;20051;-87
2023/01/28 06:46:56;;;;;;;6.60;3.63;;;;;;;-7.64;61.80;100143.50;4790182;29;20051;-94
2023/01/28 06:49:22;;;;;;;8.90;5.05;;;;;;;-8.00;62.26;100140.66;4788705;30;20048;-89
2023/01/28 06:51:48;;;;;;;11.73;4.68;;;;;;;-7.93;62.05;100129.47;4781805;30;20063;-84
2023/01/28 06:54:14;;;;;;;8.77;5.18;;;;;;;-7.90;62.08;100126.88;4777289;30;20048;-87
2023/01/28 06:56:41;;;;;;;7.10;4.05;;;;;;;-7.75;62.35;100126.13;4792113;30;20058;-85
2023/01/28 06:59:06;;;;;;;13.70;4.57;;;;;;;-7.74;62.12;100136.53;4780364;30;20051;-83
2023/01/28 07:01:32;;;;;;;7.78;3.90;;;;;;;-7.83;61.52;100126.06;4787701;30;20070;-85
2023/01/28 07:03:58;;;;;;;7.15;3.33;;;;;;;-7.57;67.80;100128.81;4801030;30;20481;-79
2023/01/28 07:06:24;;;;;;;11.00;5.13;;;;;;;-7.24;63.50;100122.94;4784504;30;20073;-86
2023/01/28 07:08:50;;;;;;;6.63;4.35;;;;;;;-7.27;60.83;100133.31;4788208;30;20059;-89
2023/01/28 07:11:16;;;;;;;7.82;4.50;;;;;;;-7.22;60.54;100142.00;4790473;29;20055;-91
2023/01/28 07:13:42;;;;;;;6.72;4.25;;;;;;;-6.75;68.56;100133.50;4787066;30;20055;-85
2023/01/28 07:16:08;;;;;;;16.88;4.75;;;;;;;-6.87;60.26;100133.47;4779273;30;20058;-88
2023/01/28 07:18:34;;;;;;;6.60;4.10;;;;;;;-6.90;58.95;100138.66;4759815;30;20039;-80
2023/01/28 07:21:00;;;;;;;7.30;3.72;;;;;;;-6.77;58.89;100143.03;4791420;30;20086;-81
2023/01/28 07:23:26;;;;;;;13.25;4.60;;;;;;;-6.80;58.38;100129.16;4762583;30;20134;-87
2023/01/28 07:25:52;;;;;;;7.10;4.07;;;;;;;-6.65;57.94;100137.88;4781103;30;20043;-88
2023/01/28 07:28:20;;;;;;;8.55;4.28;;;;;;;-6.66;57.70;100128.31;4768077;30;20047;-89
2023/01/28 07:30:50;;;;;;;12.05;4.60;;;;;;;-6.67;57.79;100136.97;4783492;30;20050;-88
2023/01/28 07:33:16;;;;;;;9.27;4.70;;;;;;;-6.64;57.62;100142.19;4766290;30;20059;-84
2023/01/28 07:35:43;;;;;;;19.00;5.03;;;;;;;-6.79;57.28;100136.97;4778641;30;20059;-84
2023/01/28 07:38:09;;;;;;;16.35;5.68;;;;;;;-6.96;57.69;100139.50;4794941;30;20104;-86
2023/01/28 07:40:34;;;;;;;5.00;3.70;;;;;;;-7.40;57.76;100136.72;4793988;30;20069;-84
2023/01/28 07:43:00;;;;;;;4.45;3.03;;;;;;;-7.66;58.11;100134.84;4792439;30;20517;-90
2023/01/28 07:45:35;;;;;;;7.28;4.10;;;;;;;-7.98;58.95;100137.19;4784340;30;20075;-82
2023/01/28 07:48:04;;;;;;;11.30;4.60;;;;;;;-8.03;59.56;100143.22;4765514;30;20176;-85
2023/01/28 07:50:31;;;;;;;;;;;;;;;-8.17;59.53;100143.97;4796446;30;20078;-85
2023/01/28 07:52:58;;;;;;;12.52;3.33;;;;;;;-8.40;59.93;100137.75;4802741;29;19926;-86
2023/01/28 07:55:24;;;;;;;13.20;3.10;;;;;;;-8.52;60.42;100132.47;4800027;30;20051;-90
2023/01/28 07:57:58;;;;;;;6.40;3.38;;;;;;;-8.57;60.74;100141.06;4781645;30;20059;-82
2023/01/28 08:00:27;;;;;;;11.32;3.60;;;;;;;-8.49;61.10;100138.56;4777987;30;20052;-84
2023/01/28 08:02:57;;;;;;;5.82;3.38;;;;;;;-8.25;60.86;100122.28;4769825;30;20060;-83
2023/01/28 08:05:25;;;;;;;13.63;3.78;;;;;;;-7.96;60.41;100124.25;4775936;30;20056;-87
2023/01/28 08:07:52;;;;;;;7.05;4.40;;;;;;;-7.59;59.80;100118.44;4779291;30;20067;-83
2023/01/28 08:10:18;;;;;;;10.32;4.70;;;;;;;-7.38;59.07;100122.84;4779583;30;20242;-84
2023/01/28 08:12:52;;;;;;;10.60;4.75;;;;;;;-7.29;57.81;100129.84;4766570;30;20081;-85
2023/01/28 08:15:18;;;;;;;7.32;4.00;;;;;;;-7.34;58.04;100123.75;4763975;30;20083;-86
2023/01/28 08:17:44;;;;;;;9.63;4.70;;;;;;;-7.04;58.02;100135.13;4792909;30;20140;-87
2023/01/28 08:20:11;;;;;;;6.07;4.13;;;;;;;-7.04;57.43;100130.81;4780548;30;20048;-88
2023/01/28 08:22:36;;;;;;;6.95;3.83;;;;;;;-7.00;57.51;100131.69;4777744;30;20044;-87
2023/01/28 08:25:02;;;;;;;6.47;4.00;;;;;;;-7.22;57.50;100130.72;4782752;30;20047;-89
2023/01/28 08:27:28;;;;;;;5.78;4.10;;;;;;;-7.20;57.80;100123.81;4772358;30;20051;-90
2023/01/28 08:29:54;;;;;;;19.15;6.97;;;;;;;-7.02;57.76;100123.03;4772824;30;20167;-87
2023/01/28 08:32:20;;;;;;;8.30;3.50;;;;;;;-6.75;58.10;100117.91;4773371;30;20071;-90
2023/01/28 08:34:45;;;;;;;4.72;3.58;;;;;;;-6.63;56.68;100117.91;4790712;30;20052;-85
2023/01/28 08:37:11;;;;;;;8.00;4.50;;;;;;;-6.72;57.01;100117.91;4759208;30;20059;-87
2023/01/28 08:39:37;;;;;;;7.65;3.97;;;;;;;-6.75;56.54;100112.69;4772447;30;20137;-86
2023/01/28 08:42:05;;;;;;;7.45;4.25;;;;;;;-6.71;56.62;100114.44;4778401;30;20066;-86
2023/01/28 08:44:32;;;;;;;5.80;3.30;;;;;;;-6.69;56.24;100107.53;4783919;30;20094;-86
2023/01/28 08:46:58;;;;;;;7.40;4.32;;;;;;;-6.73;56.96;100129.19;4764795;30;20463;-84
2023/01/28 08:49:24;;;;;;;13.93;4.22;;;;;;;-6.70;57.09;100121.38;4763398;30;20044;-86
2023/01/28 08:51:50;;;;;;;6.25;4.47;;;;;;;-6.87;57.26;100112.69;4764996;30;20066;-86
2023/01/28 08:54:16;;;;;;;8.35;5.20;;;;;;;-6.96;57.36;100110.03;4780600;30;20055;-86
2023/01/28 08:56:43;;;;;;;5.68;3.58;;;;;;;-7.07;57.73;100111.72;4767186;30;20048;-88
2023/01/28 08:59:12;;;;;;;6.43;4.15;;;;;;;-6.76;57.50;100112.72;4799017;30;20063;-86
2023/01/28 09:01:38;;;;;;;9.80;4.60;;;;;;;-6.84;57.04;100107.50;4780998;30;20074;-85
2023/01/28 09:04:04;;;;;;;7.57;4.10;;;;;;;-6.98;57.37;100094.44;4782607;30;20057;-84
2023/01/28 09:06:31;;;;;;;4.25;3.20;;;;;;;-7.01;57.46;100088.38;4768120;30;20420;-87
2023/01/28 09:09:00;;;;;;;10.32;4.10;;;;;;;-7.11;57.39;100097.84;4799335;30;20050;-88
2023/01/28 09:11:29;;;;;;;7.68;3.88;;;;;;;-7.00;57.71;100088.38;4801918;30;20065;-87
2023/01/28 09:13:58;;;;;;;5.40;4.13;;;;;;;-6.76;57.47;100095.38;4770126;30;20040;-87
2023/01/28 09:16:25;;;;;;;9.98;5.68;;;;;;;-6.37;57.36;100093.69;4783036;30;20051;-87
2023/01/28 09:18:52;;;;;;;8.93;5.05;;;;;;;-6.22;56.57;100092.81;4801149;30;20086;-86
2023/01/28 09:21:19;;;;;;;11.95;4.28;;;;;;;-6.23;55.90;100094.56;4804205;30;20067;-87
2023/01/28 09:23:45;;;;;;;9.23;4.63;;;;;;;-6.44;56.38;100091.94;4784963;30;20488;-87
2023/01/28 09:26:10;;;;;;;7.65;4.40;;;;;;;-6.71;56.57;100080.66;4786043;29;20081;-87
2023/01/28 09:28:37;;;;;;;7.60;4.32;;;;;;;-6.55;57.03;100093.66;4781822;30;20051;-86
2023/01/28 09:31:05;;;;;;;9.88;5.28;;;;;;;-6.46;57.20;100081.53;4783821;30;20232;-87
2023/01/28 09:33:32;;;;;;;8.88;5.55;;;;;;;-6.25;57.15;100083.25;4797149;30;20062;-85
2023/01/28 09:36:06;;;;;;;9.57;5.50;;;;;;;-6.00;56.96;100084.13;4768185;30;20466;-87
2023/01/28 09:38:33;;;;;;;13.43;5.68;;;;;;;-5.90;56.37;100084.97;4797280;30;20083;-88
2023/01/28 09:41:00;;;;;;;11.25;6.00;;;;;;;-5.69;56.26;100091.84;4765221;30;20111;-87
2023/01/28 09:43:58;;;;;;;9.98;5.20;;;;;;;-5.77;56.15;100091.00;4779706;30;20112;-86
2023/01/28 09:46:31;;;;;;;8.43;5.07;;;;;;;-5.97;56.50;100096.28;4794327;30;20469;-85
2023/01/28 09:49:00;;;;;;;8.48;5.32;;;;;;;-6.07;56.48;100082.41;4779754;30;20039;-87
2023/01/28 09:51:40;;;;;;;12.95;6.70;;;;;;;-6.00;56.39;100091.06;4768643;30;20103;-87
2023/01/28 09:54:41;;;;;;;10.60;5.47;;;;;;;-6.04;56.55;100082.41;4780531;30;20051;-85
2023/01/28 09:57:24;;;;;;;6.18;4.38;;;;;;;-6.06;56.36;100093.66;4746959;30;20059;-89
2023/01/28 09:59:50;;;;;;;10.80;5.10;;;;;;;-6.13;57.09;100085.88;4760552;30;20052;-84
2023/01/28 10:02:54;;;;;;;8.80;5.03;;;;;;;-6.04;56.34;100076.34;4778731;30;20058;-87
2023/01/28 10:05:20;;;;;;;14.93;4.93;;;;;;;-6.20;56.47;100075.47;4750925;30;20051;-87
2023/01/28 10:08:07;;;;;;;20.55;5.55;;;;;;;-6.34;56.79;100075.47;4760672;30;20429;-87
2023/01/28 10:11:03;;;;;;;10.82;4.97;;;;;;;-6.60;57.44;100078.91;4783861;30;20040;-88
2023/01/28 10:13:40;;;;;;;12.70;5.68;;;;;;;-6.64;58.12;100079.78;4790297;30;20051;-88
2023/01/28 10:16:47;;;;;;;18.17;5.05;;;;;;;-6.70;58.34;100090.16;4797413;30;20200;-84
2023/01/28 10:19:31;;;;;;;9.60;5.05;;;;;;;-6.58;58.58;100073.75;4755722;30;20059;-84
2023/01/28 10:22:04;;;;;;;10.38;5.72;;;;;;;-6.71;58.54;100080.66;4781305;30;20047;-89
2023/01/28 10:24:34;;;;;;;9.30;5.60;;;;;;;-6.61;58.19;100078.94;4786990;30;20184;-90
2023/01/28 10:27:30;;;;;;;9.70;4.70;;;;;;;-6.82;58.47;100074.56;4788594;30;20093;-88
2023/01/28 10:29:59;;;;;;;7.47;4.65;;;;;;;-6.75;58.35;100063.31;4753649;30;20115;-86
2023/01/28 10:32:32;;;;;;;11.88;4.78;;;;;;;-6.60;58.29;100085.84;4780063;30;20047;-87
2023/01/28 10:35:00;;;;;;;8.68;4.82;;;;;;;-6.76;58.17;100089.31;4764936;30;20052;-87
2023/01/28 10:37:28;;;;;;;8.45;4.65;;;;;;;-6.96;58.63;100084.03;4780494;30;20115;-85
2023/01/28 10:39:57;;;;;;;9.40;5.07;;;;;;;-6.93;58.47;100073.66;4762851;30;20047;-85
2023/01/28 10:42:27;;;;;;;7.07;5.00;;;;;;;-6.97;58.70;100084.91;4747138;30;20124;-84
2023/01/28 10:44:56;;;;;;;9.70;5.65;;;;;;;-6.95;58.89;100078.00;4781942;30;20083;-84
2023/01/28 10:47:30;;;;;;;6.57;4.50;;;;;;;-6.99;59.25;100082.34;4780711;30;20078;-84
2023/01/28 10:50:01;;;;;;;9.10;5.32;;;;;;;-6.96;58.79;100076.25;4748584;30;20515;-84
2023/01/28 10:52:28;;;;;;;10.60;5.95;;;;;;;-6.90;59.39;100079.75;4763275;30;20048;-85
2023/01/28 10:55:02;;;;;;;10.70;6.07;;;;;;;-6.80;59.12;100078.03;4750771;30;20051;-84
2023/01/28 10:57:31;;;;;;;9.88;5.90;;;;;;;-6.82;59.07;100064.16;4781115;30;20056;-87
2023/01/28 11:00:29;;;;;;;13.93;5.80;;;;;;;-6.82;59.46;100058.97;4794848;30;20059;-87
2023/01/28 11:02:56;;;;;;;11.05;6.15;;;;;;;-6.94;62.37;100070.19;4795544;29;20050;-89
2023/01/28 11:05:30;;;;;;;11.45;5.57;;;;;;;-7.05;60.24;100065.84;4800918;30;20204;-85
2023/01/28 11:08:15;;;;;;;11.40;5.55;;;;;;;-7.04;60.32;100077.97;4782007;30;20043;-88
2023/01/28 11:10:42;;;;;;;9.23;4.75;;;;;;;-6.97;60.58;100095.31;4774865;30;20082;-90
2023/01/28 11:13:28;;;;;;;11.55;6.13;;;;;;;-6.93;59.79;100097.06;4798990;30;20054;-87
2023/01/28 11:16:01;;;;;;;12.00;5.47;;;;;;;-7.05;60.15;100090.09;4796299;30;20050;-84
2023/01/28 11:18:32;;;;;;;9.35;4.93;;;;;;;-7.07;60.02;100101.34;4780397;30;20058;-82
2023/01/28 11:21:06;;;;;;;11.77;5.80;;;;;;;-7.13;60.57;100090.06;4800277;30;20043;-90
2023/01/28 11:23:39;;;;;;;13.60;6.47;;;;;;;-7.03;60.87;100106.56;4783268;30;20055;-87
2023/01/28 11:26:14;;;;;;;13.68;6.50;;;;;;;-6.89;60.37;100097.06;4796646;29;20051;-86
2023/01/28 11:28:42;;;;;;;9.75;6.03;;;;;;;-6.71;60.08;100096.25;4781241;30;20054;-90
2023/01/28 11:31:11;;;;;;;10.13;5.32;;;;;;;-6.70;59.71;100095.38;4793072;30;20381;-92
2023/01/28 11:33:58;;;;;;;12.25;6.20;;;;;;;-6.76;59.40;100090.19;4778315;30;20062;-87
2023/01/28 11:36:29;;;;;;;15.52;7.63;;;;;;;-6.88;59.94;100090.16;4765706;30;20435;-91
2023/01/28 11:39:15;;;;;;;12.57;6.55;;;;;;;-6.83;60.01;100093.63;4797436;30;20051;-82
2023/01/28 11:41:41;;;;;;;14.30;7.25;;;;;;;-6.77;59.93;100092.75;4794697;30;20055;-88
2023/01/28 11:44:15;;;;;;;17.23;6.80;;;;;;;-6.81;60.06;100089.28;4796162;30;20044;-84
2023/01/28 11:47:03;;;;;;;12.43;5.80;;;;;;;-6.85;59.94;100090.13;4776038;30;20492;-88
2023/01/28 11:49:50;;;;;;;10.20;5.93;;;;;;;-6.90;59.83;100094.47;4760164;30;20078;-88
2023/01/28 11:52:34;;;;;;;13.95;6.57;;;;;;;-6.95;60.06;100091.00;4775121;30;20043;-86
2023/01/28 11:55:21;;;;;;;14.25;7.50;;;;;;;-7.09;60.35;100091.81;4757993;30;20047;-86
2023/01/28 11:57:55;;;;;;;15.85;7.15;;;;;;;-7.25;60.55;100084.84;4772426;30;20069;-85
2023/01/28 12:00:34;;;;;;;23.85;10.70;;;;;;;-7.24;60.53;100089.16;4787259;30;20413;-85
2023/01/28 12:03:08;;;;;;;15.25;7.07;;;;;;;-7.39;60.65;100086.50;4756915;30;20196;-85
2023/01/28 12:05:41;;;;;;;12.10;6.43;;;;;;;-7.51;61.23;100084.72;4771338;30;20047;-86
2023/01/28 12:08:27;;;;;;;8.32;4.15;;;;;;;-7.51;61.29;100083.88;4771931;30;20100;-84
2023/01/28 12:11:08;;;;;;;12.27;7.03;;;;;;;-7.80;61.63;100089.75;4777916;30;20059;-87
2023/01/28 12:13:57;;;;;;;12.13;6.75;;;;;;;-7.82;62.17;100086.31;4776327;30;20135;-85